This is the latest recevied weather packets stored in our database for station/object IW4CYE-7. If no packets are shown the sender has not sent any weather packets the latest 10 day(s).
| Time | Temp. | Humidity | Pressure | Rain* | Wind** | Luminosity | Snow |
|---|---|---|---|---|---|---|---|
| 1787963241 | 25.56° C | 81% | 1000.7 hPa | 0 mm | - | - | - |
| 1787962641 | 25.56° C | 81% | 1001 hPa | 0 mm | - | - | - |
| 1787962041 | 24.44° C | 84% | 1000.7 hPa | 0 mm | - | - | - |
| 1787961441 | 23.89° C | 87% | 1000.7 hPa | 0 mm | - | - | - |
| 1787960841 | 23.89° C | 88% | 1000.7 hPa | 0 mm | - | - | - |
| 1787960241 | 23.89° C | 88% | 1000.7 hPa | 0 mm | - | - | - |
| 1787959641 | 23.89° C | 89% | 1000.3 hPa | 0 mm | - | - | - |
| 1787959041 | 24.44° C | 91% | 1000.3 hPa | 0 mm | - | - | - |
| 1787958441 | 24.44° C | 90% | 1000.3 hPa | 0 mm | - | - | - |
| 1787957841 | 24.44° C | 90% | 1000.3 hPa | 0 mm | - | - | - |
| 1787957241 | 24.44° C | 89% | 1000.3 hPa | 0 mm | - | - | - |
| 1787956641 | 25° C | 88% | 1000 hPa | 0 mm | - | - | - |
| 1787956041 | 25° C | 89% | 1000.7 hPa | 0 mm | - | - | - |
| 1787955441 | 25° C | 88% | 1000.7 hPa | 0 mm | - | - | - |
| 1787954841 | 25° C | 88% | 1001.4 hPa | 0 mm | - | - | - |
| 1787954241 | 25.56° C | 87% | 1001.4 hPa | 0 mm | - | - | - |
| 1787953641 | 25.56° C | 87% | 1001.4 hPa | 0 mm | - | - | - |
| 1787953041 | 25.56° C | 87% | 1001.4 hPa | 0 mm | - | - | - |
| 1787952441 | 26.11° C | 84% | 1001.4 hPa | 0 mm | - | - | - |
| 1787951841 | 26.11° C | 84% | 1001.4 hPa | 0 mm | - | - | - |
| 1787951241 | 26.67° C | 83% | 1001.7 hPa | 0 mm | - | - | - |
| 1787950641 | 26.67° C | 81% | 1001.7 hPa | 0 mm | - | - | - |
| 1787950041 | 27.22° C | 80% | 1001.7 hPa | 0 mm | - | - | - |
| 1787949441 | 27.78° C | 79% | 1002 hPa | 0 mm | - | - | - |
| 1787948841 | 27.78° C | 77% | 1001.7 hPa | 0 mm | - | - | - |
* Rain latest hour (hover to see other rain measurements)
** Current wind speed in m/s (hover to see current wind gust speed)